createdAt,value
2023-04-25T00:03:20.034Z,23.90
2023-04-25T00:08:24.493Z,23.90
2023-04-25T00:13:28.741Z,23.90
2023-04-25T00:18:34.621Z,23.90
2023-04-25T00:23:40.392Z,23.80
2023-04-25T00:28:44.320Z,23.80
2023-04-25T00:33:49.299Z,23.80
2023-04-25T00:38:55.831Z,23.80
2023-04-25T00:44:01.903Z,23.80
2023-04-25T00:49:05.863Z,23.80
2023-04-25T00:54:09.792Z,23.90
2023-04-25T00:59:14.854Z,23.80
2023-04-25T01:04:19.239Z,23.90
2023-04-25T01:09:25.069Z,23.90
2023-04-25T01:14:28.993Z,24.00
2023-04-25T01:19:33.215Z,24.00
2023-04-25T01:24:37.280Z,23.90
2023-04-25T01:29:41.804Z,23.80
2023-04-25T01:34:45.992Z,23.70
2023-04-25T01:39:51.523Z,23.70
2023-04-25T01:44:55.989Z,23.60
2023-04-25T01:50:00.090Z,23.60
2023-04-25T01:55:04.835Z,23.50
2023-04-25T02:00:12.158Z,23.50
2023-04-25T02:05:19.156Z,23.50
2023-04-25T02:10:23.485Z,23.50
2023-04-25T02:15:47.955Z,23.40
2023-04-25T02:20:55.086Z,23.40
2023-04-25T02:25:59.323Z,23.40
2023-04-25T02:31:03.336Z,23.40
2023-04-25T02:36:08.950Z,23.40
2023-04-25T02:41:13.085Z,23.30
2023-04-25T02:46:22.835Z,23.30
2023-04-25T02:51:34.052Z,23.30
2023-04-25T02:56:38.562Z,23.30
2023-04-25T03:01:44.549Z,23.30
2023-04-25T03:06:48.790Z,23.30
2023-04-25T03:11:53.024Z,23.20
2023-04-25T03:16:57.530Z,23.10
2023-04-25T03:22:01.587Z,23.10
2023-04-25T03:27:06.663Z,23.10
2023-04-25T03:32:11.451Z,23.10
2023-04-25T03:37:15.627Z,23.10
2023-04-25T03:42:21.297Z,23.00
2023-04-25T03:47:26.002Z,23.00
2023-04-25T03:52:30.496Z,23.00
2023-04-25T03:57:34.829Z,23.00
2023-04-25T04:02:41.845Z,23.00
2023-04-25T04:07:48.124Z,22.90
2023-04-25T04:12:54.085Z,22.90
2023-04-25T04:17:58.648Z,22.90
2023-04-25T04:23:03.388Z,22.90
2023-04-25T04:28:08.549Z,22.90
2023-04-25T04:33:32.529Z,23.00
2023-04-25T04:38:42.088Z,23.30
2023-04-25T04:43:52.172Z,23.60
2023-04-25T04:49:07.763Z,23.80
2023-04-25T04:54:21.109Z,23.90
2023-04-25T04:59:42.642Z,24.00
2023-04-25T05:05:25.661Z,24.00
2023-04-25T05:10:48.309Z,24.10
2023-04-25T05:16:15.822Z,24.20
2023-04-25T05:21:31.074Z,24.20
2023-04-25T05:26:53.930Z,24.20
2023-04-25T05:32:26.514Z,24.20
2023-04-25T05:37:32.903Z,24.20
2023-04-25T05:42:46.037Z,24.20
2023-04-25T05:47:58.853Z,24.10
2023-04-25T05:53:35.134Z,24.10
2023-04-25T05:58:40.190Z,24.10
2023-04-25T06:03:45.446Z,24.10
2023-04-25T06:08:49.674Z,24.10
2023-04-25T06:13:53.805Z,24.10
2023-04-25T06:18:58.477Z,24.10
2023-04-25T06:24:04.790Z,24.10
2023-04-25T06:29:10.666Z,24.10
2023-04-25T06:34:15.530Z,24.10
2023-04-25T06:39:21.467Z,24.10
2023-04-25T06:44:27.525Z,24.10
2023-04-25T06:49:33.089Z,24.00
2023-04-25T06:54:43.285Z,24.00
2023-04-25T07:00:00.831Z,24.10
2023-04-25T07:05:07.209Z,24.30
2023-04-25T07:10:11.448Z,24.30
2023-04-25T07:15:16.007Z,24.30
2023-04-25T07:20:22.287Z,24.30
2023-04-25T07:25:26.603Z,24.20
2023-04-25T07:30:31.576Z,24.30
2023-04-25T07:35:35.310Z,24.20
2023-04-25T07:40:39.628Z,24.10
2023-04-25T07:45:46.484Z,24.00
2023-04-25T07:50:51.589Z,23.90
2023-04-25T07:55:54.404Z,23.80
2023-04-25T08:00:59.444Z,23.80
2023-04-25T08:06:24.036Z,23.80
2023-04-25T08:11:44.667Z,23.80
2023-04-25T08:16:50.124Z,23.80
2023-04-25T08:21:57.104Z,23.70
2023-04-25T08:27:08.008Z,23.80
2023-04-25T08:32:13.365Z,23.70
2023-04-25T08:37:21.405Z,23.70
2023-04-25T08:42:38.136Z,23.70
2023-04-25T08:47:44.681Z,23.70
2023-04-25T08:52:51.933Z,23.70
2023-04-25T08:57:57.634Z,23.60
2023-04-25T09:03:02.083Z,23.60
2023-04-25T09:08:08.825Z,23.60
2023-04-25T09:13:19.391Z,23.60
2023-04-25T09:18:59.345Z,23.60
2023-04-25T09:24:03.866Z,23.60
2023-04-25T09:29:09.559Z,23.70
2023-04-25T09:34:18.387Z,23.70
2023-04-25T09:39:30.218Z,23.70
2023-04-25T09:44:47.271Z,23.70
2023-04-25T09:49:53.230Z,23.70
2023-04-25T09:54:59.737Z,23.70
2023-04-25T10:00:13.521Z,23.70
2023-04-25T10:05:21.017Z,23.70
2023-04-25T10:10:30.764Z,23.70
2023-04-25T10:15:40.577Z,23.70
2023-04-25T10:20:44.861Z,23.70
2023-04-25T10:25:50.323Z,23.70
2023-04-25T10:31:06.045Z,23.80
2023-04-25T10:36:19.759Z,23.70
2023-04-25T10:41:24.519Z,23.70
2023-04-25T10:46:32.719Z,23.80
2023-04-25T10:51:54.194Z,23.80
2023-04-25T10:57:00.056Z,23.80
2023-04-25T11:02:14.721Z,23.80
2023-04-25T11:07:52.878Z,23.80
2023-04-25T11:13:04.805Z,23.90
2023-04-25T11:18:11.584Z,23.90
2023-04-25T11:23:17.297Z,23.90
2023-04-25T11:28:26.767Z,23.90
2023-04-25T11:33:32.305Z,23.90
2023-04-25T11:38:36.328Z,23.90
2023-04-25T11:43:42.853Z,23.90
2023-04-25T11:48:48.084Z,23.70
2023-04-25T11:53:52.772Z,23.60
2023-04-25T11:59:04.568Z,23.80
2023-04-25T12:04:13.073Z,24.00
2023-04-25T12:09:25.267Z,24.10
2023-04-25T12:14:31.322Z,24.30
2023-04-25T12:19:36.982Z,24.50
2023-04-25T12:24:41.507Z,24.60
2023-04-25T12:29:54.023Z,24.70
2023-04-25T12:34:58.223Z,24.70
2023-04-25T12:40:02.622Z,24.70
2023-04-25T12:45:08.373Z,24.70
2023-04-25T12:50:14.266Z,24.70
2023-04-25T12:55:18.514Z,24.70
2023-04-25T13:00:22.480Z,24.70
2023-04-25T13:05:27.152Z,24.70
2023-04-25T13:10:31.336Z,24.70
2023-04-25T13:15:35.246Z,24.70
2023-04-25T13:20:39.283Z,24.60
2023-04-25T13:25:43.218Z,24.70
2023-04-25T13:30:49.502Z,24.60
2023-04-25T13:35:58.341Z,24.60
2023-04-25T13:41:02.366Z,24.50
2023-04-25T13:46:06.581Z,24.50
2023-04-25T13:51:10.530Z,24.50
2023-04-25T13:56:14.452Z,24.50
2023-04-25T14:01:18.658Z,24.50
2023-04-25T14:06:25.500Z,24.50
2023-04-25T14:11:29.432Z,24.40
2023-04-25T14:16:33.658Z,24.50
2023-04-25T14:21:37.917Z,24.50
2023-04-25T14:26:43.388Z,24.50
2023-04-25T14:31:47.453Z,24.30
2023-04-25T14:36:51.511Z,24.30
2023-04-25T14:41:55.569Z,24.30
2023-04-25T14:46:59.786Z,24.40
2023-04-25T14:52:04.808Z,24.30
2023-04-25T14:57:09.208Z,24.30
2023-04-25T15:02:13.401Z,24.20
2023-04-25T15:07:18.490Z,24.20
2023-04-25T15:12:22.670Z,24.20
2023-04-25T15:17:26.975Z,24.10
2023-04-25T15:22:31.309Z,24.10
2023-04-25T15:27:39.243Z,24.10
2023-04-25T15:32:44.123Z,24.10
2023-04-25T15:37:47.911Z,24.10
2023-04-25T15:42:53.073Z,24.00
2023-04-25T15:47:57.568Z,24.10
2023-04-25T15:53:02.152Z,24.10
2023-04-25T15:58:06.184Z,24.00
2023-04-25T16:03:11.045Z,23.90
2023-04-25T16:08:18.248Z,23.90
2023-04-25T16:13:23.624Z,24.10
2023-04-25T16:18:27.845Z,24.10
2023-04-25T16:23:31.997Z,24.00
2023-04-25T16:28:36.433Z,24.00
2023-04-25T16:33:40.914Z,23.90
2023-04-25T16:38:44.815Z,23.70
2023-04-25T16:43:48.589Z,23.90
2023-04-25T16:48:54.821Z,24.10
2023-04-25T16:54:02.535Z,24.10
2023-04-25T16:59:07.181Z,23.90
2023-04-25T17:04:12.936Z,23.70
2023-04-25T17:09:18.026Z,23.60
2023-04-25T17:14:22.654Z,23.70
2023-04-25T17:19:26.681Z,23.70
2023-04-25T17:24:30.612Z,23.80
2023-04-25T17:29:37.094Z,23.80
2023-04-25T17:34:43.692Z,23.70
2023-04-25T17:39:50.353Z,23.60
2023-04-25T17:44:58.049Z,23.60
2023-04-25T17:50:02.320Z,23.60
2023-04-25T17:55:09.181Z,23.60
2023-04-25T18:00:14.441Z,23.50
2023-04-25T18:05:21.700Z,23.50
2023-04-25T18:10:26.459Z,23.40
2023-04-25T18:15:32.017Z,23.40
2023-04-25T18:20:37.378Z,23.40
2023-04-25T18:25:43.720Z,23.40
2023-04-25T18:30:49.955Z,23.40
2023-04-25T18:35:59.397Z,23.40
2023-04-25T18:41:33.834Z,23.40
2023-04-25T18:46:34.090Z,23.50
2023-04-25T18:51:40.271Z,23.50
2023-04-25T18:56:45.633Z,23.50
2023-04-25T19:01:53.222Z,23.60
2023-04-25T19:07:00.657Z,23.50
2023-04-25T19:12:07.282Z,23.50
2023-04-25T19:17:13.766Z,23.60
2023-04-25T19:22:21.687Z,23.60
2023-04-25T19:27:26.766Z,23.50
2023-04-25T19:32:33.520Z,23.50
2023-04-25T19:37:40.246Z,23.40
2023-04-25T19:42:46.896Z,23.30
2023-04-25T19:47:52.827Z,23.30
2023-04-25T19:52:59.104Z,23.30
2023-04-25T19:58:07.050Z,23.30
2023-04-25T20:03:14.257Z,23.30
2023-04-25T20:08:58.025Z,23.30
2023-04-25T20:14:07.530Z,23.20
2023-04-25T20:19:13.454Z,23.30
2023-04-25T20:24:17.897Z,23.30
2023-04-25T20:29:24.054Z,23.30
2023-04-25T20:34:30.794Z,23.10
2023-04-25T20:39:36.496Z,23.10
2023-04-25T20:44:41.493Z,23.00
2023-04-25T20:49:45.939Z,23.00
2023-04-25T20:54:53.172Z,23.00
2023-04-25T20:59:57.818Z,23.10
2023-04-25T21:05:02.584Z,23.00
2023-04-25T21:10:07.310Z,23.00
2023-04-25T21:15:12.706Z,22.90
2023-04-25T21:20:19.141Z,23.00
2023-04-25T21:25:37.335Z,23.10
2023-04-25T21:30:44.727Z,23.20
2023-04-25T21:35:53.681Z,23.70
2023-04-25T21:41:00.759Z,23.90
2023-04-25T21:46:21.401Z,24.00
2023-04-25T21:51:33.456Z,24.10
2023-04-25T21:56:45.597Z,24.20
2023-04-25T22:01:59.193Z,24.20
2023-04-25T22:07:13.048Z,24.30
2023-04-25T22:12:23.534Z,24.40
2023-04-25T22:18:16.957Z,24.40
2023-04-25T22:23:21.196Z,24.50
2023-04-25T22:28:25.941Z,24.40
2023-04-25T22:33:34.632Z,24.40
2023-04-25T22:38:41.166Z,24.30
2023-04-25T22:43:45.503Z,24.20
2023-04-25T22:48:49.984Z,24.20
2023-04-25T22:53:54.300Z,24.10
2023-04-25T22:58:59.030Z,24.10
2023-04-25T23:04:03.253Z,24.00
2023-04-25T23:09:11.050Z,23.90
2023-04-25T23:14:17.309Z,23.90
2023-04-25T23:19:22.540Z,23.80
2023-04-25T23:24:27.415Z,23.70
2023-04-25T23:29:34.710Z,23.70
2023-04-25T23:34:39.795Z,23.70
2023-04-25T23:39:51.799Z,23.70
2023-04-25T23:44:57.922Z,23.60
2023-04-25T23:50:03.629Z,23.50
2023-04-25T23:55:08.375Z,23.40
